Ham Lake, Minnesota
Current Conditions -  °F | °C
As of 6:50 PM on Friday 24 Oct 2014 (Local Time) from KANE Reporting Station
Broken Clouds Broken Clouds  
Wind Chill: 63°   Ceiling: 25000
Heat Index: 63°   Visibility: 10mi
Dew Point: 54°   Wind: 5mph
Humidity: 72%   Direction: 200°SSW
Pressure: 29.84"   Gusts: NA
Location:  45.2551°N, 93.2664°W
Report Text: KANE 242350Z 20004KT 10SM BKN250 17/12 A2984
Loading
Personal Weather Stations






























Interactive Weather Map
Tropical Storm Tracking
New forecast layout! Learn more

10-Day Weather Forecast

Advertisements
Track Severe Weather on mobile